createdAt,value
2018-05-10T00:00:27.362Z,19.16
2018-05-10T00:02:55.798Z,19.13
2018-05-10T00:05:24.166Z,19.09
2018-05-10T00:07:52.654Z,19.09
2018-05-10T00:10:20.920Z,19.02
2018-05-10T00:12:49.402Z,19.00
2018-05-10T00:15:17.720Z,18.95
2018-05-10T00:17:45.983Z,18.90
2018-05-10T00:20:14.265Z,18.83
2018-05-10T00:22:43.592Z,18.79
2018-05-10T00:25:12.646Z,18.77
2018-05-10T00:27:40.985Z,18.71
2018-05-10T00:30:09.282Z,18.70
2018-05-10T00:32:37.695Z,18.68
2018-05-10T00:35:05.958Z,18.68
2018-05-10T00:37:34.983Z,18.68
2018-05-10T00:40:03.267Z,18.65
2018-05-10T00:42:31.534Z,18.62
2018-05-10T00:45:00.564Z,18.62
2018-05-10T00:47:28.841Z,18.56
2018-05-10T00:49:57.894Z,18.50
2018-05-10T00:52:26.190Z,18.46
2018-05-10T00:54:57.080Z,18.46
2018-05-10T00:57:25.331Z,18.39
2018-05-10T00:59:53.626Z,18.38
2018-05-10T01:02:22.075Z,18.30
2018-05-10T01:04:50.552Z,18.28
2018-05-10T01:07:18.745Z,18.30
2018-05-10T01:09:47.778Z,18.27
2018-05-10T01:12:16.065Z,18.20
2018-05-10T01:14:45.107Z,18.16
2018-05-10T01:17:13.379Z,18.14
2018-05-10T01:19:43.579Z,18.08
2018-05-10T01:22:12.615Z,18.04
2018-05-10T01:24:41.103Z,17.98
2018-05-10T01:27:09.491Z,17.95
2018-05-10T01:29:38.591Z,17.92
2018-05-10T01:32:07.735Z,17.90
2018-05-10T01:34:36.096Z,17.89
2018-05-10T01:37:04.369Z,17.91
2018-05-10T01:39:33.426Z,17.92
2018-05-10T01:42:01.798Z,17.91
2018-05-10T01:44:30.109Z,17.93
2018-05-10T01:46:58.470Z,17.86
2018-05-10T01:49:27.493Z,17.85
2018-05-10T01:51:55.775Z,17.79
2018-05-10T01:54:24.070Z,17.72
2018-05-10T01:56:52.366Z,17.69
2018-05-10T01:59:20.659Z,17.67
2018-05-10T02:01:48.961Z,17.63
2018-05-10T02:04:17.229Z,17.55
2018-05-10T02:06:45.619Z,17.46
2018-05-10T02:09:14.716Z,17.43
2018-05-10T02:11:43.121Z,17.32
2018-05-10T02:14:11.411Z,17.25
2018-05-10T02:16:39.693Z,17.26
2018-05-10T02:19:08.022Z,17.21
2018-05-10T02:21:36.297Z,17.07
2018-05-10T02:24:04.631Z,17.04
2018-05-10T02:26:32.880Z,16.95
2018-05-10T02:29:01.150Z,16.93
2018-05-10T02:31:29.545Z,16.87
2018-05-10T02:33:57.794Z,16.78
2018-05-10T02:36:26.211Z,16.68
2018-05-10T02:38:54.493Z,16.61
2018-05-10T02:41:23.565Z,16.57
2018-05-10T02:43:51.829Z,16.52
2018-05-10T02:46:20.107Z,16.50
2018-05-10T02:48:48.409Z,16.48
2018-05-10T02:51:16.663Z,16.44
2018-05-10T02:53:45.717Z,16.39
2018-05-10T02:56:13.997Z,16.37
2018-05-10T02:58:42.278Z,16.33
2018-05-10T03:01:10.557Z,16.29
2018-05-10T03:03:38.970Z,16.29
2018-05-10T03:06:08.498Z,16.23
2018-05-10T03:08:36.799Z,16.24
2018-05-10T03:11:05.080Z,16.22
2018-05-10T03:13:33.354Z,16.25
2018-05-10T03:16:01.648Z,16.25
2018-05-10T03:18:29.903Z,16.25
2018-05-10T03:20:58.949Z,16.27
2018-05-10T03:23:27.318Z,16.29
2018-05-10T03:25:55.616Z,16.24
2018-05-10T03:28:24.665Z,16.17
2018-05-10T03:30:53.003Z,16.10
2018-05-10T03:33:22.148Z,16.02
2018-05-10T03:35:50.572Z,15.99
2018-05-10T03:38:19.742Z,15.95
2018-05-10T03:40:48.012Z,15.88
2018-05-10T03:43:16.299Z,15.88
2018-05-10T03:45:45.331Z,15.86
2018-05-10T03:48:13.583Z,15.81
2018-05-10T03:50:42.613Z,15.76
2018-05-10T03:53:10.914Z,15.72
2018-05-10T03:55:39.204Z,15.67
2018-05-10T03:58:07.459Z,15.65
2018-05-10T04:00:35.751Z,15.60
2018-05-10T04:09:59.961Z,15.53
2018-05-10T04:12:28.241Z,15.51
2018-05-10T04:14:57.294Z,15.53
2018-05-10T04:17:25.558Z,15.54
2018-05-10T04:19:53.895Z,15.54
2018-05-10T04:22:22.182Z,15.54
2018-05-10T04:24:50.442Z,15.49
2018-05-10T04:27:18.811Z,15.49
2018-05-10T04:29:47.081Z,15.47
2018-05-10T04:32:16.106Z,15.46
2018-05-10T04:34:44.403Z,15.44
2018-05-10T04:37:12.671Z,15.41
2018-05-10T04:39:41.699Z,15.39
2018-05-10T04:42:09.996Z,15.39
2018-05-10T04:44:38.261Z,15.39
2018-05-10T04:47:07.295Z,15.44
2018-05-10T04:49:35.582Z,15.47
2018-05-10T04:52:03.839Z,15.46
2018-05-10T04:54:32.881Z,15.44
2018-05-10T04:57:01.216Z,15.36
2018-05-10T04:59:29.487Z,15.36
2018-05-10T05:01:57.735Z,15.37
2018-05-10T05:04:26.030Z,15.37
2018-05-10T05:06:54.328Z,15.36
2018-05-10T05:09:22.617Z,15.27
2018-05-10T05:11:50.933Z,15.31
2018-05-10T05:14:19.219Z,15.31
2018-05-10T05:16:47.545Z,15.35
2018-05-10T05:19:16.216Z,15.39
2018-05-10T05:21:44.478Z,15.42
2018-05-10T05:24:13.688Z,15.46
2018-05-10T05:26:41.968Z,15.45
2018-05-10T05:29:10.241Z,15.52
2018-05-10T05:31:39.289Z,15.56
2018-05-10T05:34:07.563Z,15.55
2018-05-10T05:36:35.929Z,15.59
2018-05-10T05:39:05.167Z,15.63
2018-05-10T05:41:33.767Z,15.56
2018-05-10T05:44:02.035Z,15.52
2018-05-10T05:46:31.070Z,15.52
2018-05-10T05:48:59.348Z,15.59
2018-05-10T05:51:27.633Z,15.76
2018-05-10T05:53:56.663Z,15.91
2018-05-10T05:56:24.953Z,16.13
2018-05-10T05:58:53.248Z,16.47
2018-05-10T06:01:21.565Z,16.64
2018-05-10T06:03:49.878Z,16.81
2018-05-10T06:06:18.137Z,16.93
2018-05-10T06:08:46.503Z,16.99
2018-05-10T06:11:14.696Z,17.05
2018-05-10T06:13:42.964Z,16.92
2018-05-10T06:16:12.030Z,16.85
2018-05-10T06:18:40.303Z,16.65
2018-05-10T06:21:08.582Z,16.61
2018-05-10T06:23:36.846Z,16.52
2018-05-10T06:26:05.142Z,16.50
2018-05-10T06:28:34.194Z,16.41
2018-05-10T06:31:02.649Z,16.44
2018-05-10T06:33:31.103Z,16.50
2018-05-10T06:36:00.236Z,16.65
2018-05-10T06:38:29.248Z,16.77
2018-05-10T06:40:57.542Z,16.91
2018-05-10T06:43:26.577Z,17.01
2018-05-10T06:45:54.908Z,17.10
2018-05-10T06:48:23.215Z,17.19
2018-05-10T06:50:52.247Z,17.13
2018-05-10T06:53:20.512Z,17.34
2018-05-10T06:55:49.564Z,17.41
2018-05-10T06:58:17.838Z,17.33
2018-05-10T07:00:46.110Z,17.37
2018-05-10T07:03:15.143Z,17.48
2018-05-10T07:05:43.440Z,17.63
2018-05-10T07:08:11.832Z,17.70
2018-05-10T07:10:40.104Z,17.87
2018-05-10T07:13:08.382Z,18.01
2018-05-10T07:15:37.413Z,18.01
2018-05-10T07:18:05.708Z,18.09
2018-05-10T07:20:33.988Z,18.21
2018-05-10T07:23:02.260Z,18.33
2018-05-10T07:25:31.288Z,18.61
2018-05-10T07:27:59.543Z,19.31
2018-05-10T07:30:27.799Z,19.66
2018-05-10T07:32:57.996Z,19.98
2018-05-10T07:35:26.193Z,20.08
2018-05-10T07:37:54.549Z,19.96
2018-05-10T07:40:23.657Z,19.94
2018-05-10T07:42:52.725Z,20.11
2018-05-10T07:45:20.999Z,20.59
2018-05-10T07:47:49.279Z,21.35
2018-05-10T07:50:17.574Z,21.86
2018-05-10T07:52:45.825Z,22.39
2018-05-10T07:55:14.878Z,22.42
2018-05-10T07:57:43.235Z,22.48
2018-05-10T08:00:12.269Z,22.32
2018-05-10T08:02:40.538Z,22.08
2018-05-10T08:05:09.582Z,22.12
2018-05-10T08:07:37.945Z,22.03
2018-05-10T08:10:06.979Z,22.04
2018-05-10T08:12:35.230Z,22.29
2018-05-10T08:15:04.259Z,22.53
2018-05-10T08:17:32.538Z,22.95
2018-05-10T08:20:01.791Z,23.53
2018-05-10T08:22:30.064Z,23.56
2018-05-10T08:24:58.364Z,23.61
2018-05-10T08:27:44.287Z,23.74
2018-05-10T08:30:12.642Z,23.55
2018-05-10T08:32:40.855Z,23.07
2018-05-10T08:35:09.116Z,23.49
2018-05-10T08:37:37.402Z,23.43
2018-05-10T08:40:06.421Z,23.06
2018-05-10T08:42:34.701Z,23.51
2018-05-10T08:45:02.978Z,23.62
2018-05-10T08:47:32.007Z,23.15
2018-05-10T08:50:00.291Z,22.62
2018-05-10T08:52:29.320Z,23.01
2018-05-10T08:54:57.646Z,23.42
2018-05-10T08:57:25.991Z,23.66
2018-05-10T08:59:54.439Z,23.56
2018-05-10T09:02:23.002Z,23.12
2018-05-10T09:04:51.260Z,22.71
2018-05-10T09:07:19.521Z,22.44
2018-05-10T09:09:47.783Z,22.32
2018-05-10T09:12:16.135Z,22.01
2018-05-10T09:14:44.415Z,22.32
2018-05-10T09:17:13.476Z,22.19
2018-05-10T09:19:41.750Z,22.30
2018-05-10T09:22:10.049Z,21.67
2018-05-10T09:24:38.323Z,22.16
2018-05-10T09:27:06.587Z,22.20
2018-05-10T09:29:34.957Z,22.03
2018-05-10T09:32:03.337Z,21.39
2018-05-10T09:34:31.580Z,20.97
2018-05-10T09:36:59.865Z,21.06
2018-05-10T09:39:28.275Z,21.02
2018-05-10T09:41:57.363Z,20.96
2018-05-10T09:44:26.431Z,20.31
2018-05-10T09:46:54.872Z,20.45
2018-05-10T09:49:25.894Z,20.60
2018-05-10T09:51:54.995Z,21.06
2018-05-10T09:54:24.767Z,21.21
2018-05-10T09:56:53.188Z,21.06
2018-05-10T09:59:21.770Z,21.38
2018-05-10T10:01:50.075Z,20.69
2018-05-10T10:04:18.409Z,20.09
2018-05-10T10:06:48.183Z,19.55
2018-05-10T10:09:16.725Z,19.86
2018-05-10T10:11:45.200Z,20.00
2018-05-10T10:14:13.885Z,20.51
2018-05-10T10:16:42.454Z,20.76
2018-05-10T10:19:10.774Z,21.24
2018-05-10T10:21:41.161Z,21.04
2018-05-10T10:24:12.539Z,21.01
2018-05-10T10:26:43.101Z,21.11
2018-05-10T10:29:11.428Z,20.74
2018-05-10T10:31:39.696Z,20.85
2018-05-10T10:34:08.743Z,20.64
2018-05-10T10:36:36.989Z,20.87
2018-05-10T10:39:06.370Z,20.43
2018-05-10T10:41:34.643Z,20.14
2018-05-10T10:44:02.921Z,19.68
2018-05-10T10:46:31.211Z,19.61
2018-05-10T10:48:59.503Z,19.32
2018-05-10T10:51:27.796Z,19.45
2018-05-10T10:53:56.171Z,19.37
2018-05-10T10:56:24.393Z,19.34
2018-05-10T10:58:52.671Z,18.95
2018-05-10T11:01:20.932Z,18.64
2018-05-10T11:03:50.018Z,18.66
2018-05-10T11:06:18.290Z,18.20
2018-05-10T11:08:46.568Z,18.07
2018-05-10T11:11:14.850Z,17.73
2018-05-10T11:13:43.225Z,17.86
2018-05-10T11:16:11.489Z,17.78
2018-05-10T11:18:40.542Z,17.73
2018-05-10T11:21:08.810Z,17.78
2018-05-10T11:23:37.068Z,18.11
2018-05-10T11:26:06.112Z,17.88
2018-05-10T11:28:34.393Z,17.46
2018-05-10T11:31:02.680Z,17.44
2018-05-10T11:33:31.742Z,17.81
2018-05-10T11:36:00.028Z,17.89
2018-05-10T11:38:28.372Z,17.82
2018-05-10T11:40:57.432Z,18.15
2018-05-10T11:43:25.716Z,17.88
2018-05-10T11:45:54.036Z,17.90
2018-05-10T11:48:22.328Z,17.92
2018-05-10T11:50:51.414Z,18.27
2018-05-10T11:53:19.684Z,17.54
2018-05-10T11:55:47.968Z,17.68
2018-05-10T11:58:16.231Z,17.86
2018-05-10T12:00:44.523Z,18.20
2018-05-10T12:03:12.798Z,18.33
2018-05-10T12:05:41.835Z,18.05
2018-05-10T12:08:10.107Z,18.29
2018-05-10T12:10:40.381Z,18.26
2018-05-10T12:13:08.742Z,18.05
2018-05-10T12:15:37.023Z,17.93
2018-05-10T12:18:06.062Z,17.89
2018-05-10T12:20:34.381Z,17.75
2018-05-10T12:23:02.616Z,17.58
2018-05-10T12:25:31.711Z,17.58
2018-05-10T12:27:59.962Z,17.64
2018-05-10T12:30:28.267Z,17.55
2018-05-10T12:32:56.579Z,17.74
2018-05-10T12:35:25.623Z,17.80
2018-05-10T12:37:53.935Z,18.02
2018-05-10T12:40:22.291Z,18.10
2018-05-10T12:42:50.547Z,18.09
2018-05-10T12:45:19.572Z,18.19
2018-05-10T12:47:48.603Z,17.98
2018-05-10T12:50:16.884Z,18.01
2018-05-10T12:52:45.158Z,18.21
2018-05-10T12:55:14.200Z,18.29
2018-05-10T12:57:42.453Z,18.48
2018-05-10T13:00:11.483Z,18.35
2018-05-10T13:02:39.753Z,18.39
2018-05-10T13:05:08.787Z,18.41
2018-05-10T13:07:37.177Z,18.92
2018-05-10T13:10:05.440Z,19.05
2018-05-10T13:12:34.530Z,19.18
2018-05-10T13:15:02.799Z,19.29
2018-05-10T13:17:31.073Z,19.33
2018-05-10T13:19:59.365Z,19.29
2018-05-10T13:22:27.692Z,19.20
2018-05-10T13:24:56.012Z,19.10
2018-05-10T13:27:24.496Z,18.92
2018-05-10T13:29:52.771Z,18.84
2018-05-10T13:32:21.075Z,18.83
2018-05-10T13:34:50.100Z,18.84
2018-05-10T13:37:18.379Z,18.77
2018-05-10T13:39:47.431Z,18.74
2018-05-10T13:42:15.702Z,18.72
2018-05-10T13:44:44.312Z,18.67
2018-05-10T13:47:12.713Z,18.66
2018-05-10T13:49:40.871Z,18.62
2018-05-10T13:52:09.142Z,18.48
2018-05-10T13:54:38.200Z,18.44
2018-05-10T13:57:06.470Z,18.26
2018-05-10T13:59:34.759Z,18.40
2018-05-10T14:02:03.055Z,18.38
2018-05-10T14:04:31.391Z,18.30
2018-05-10T14:06:59.646Z,18.41
2018-05-10T14:09:27.931Z,18.32
2018-05-10T14:11:56.232Z,18.52
2018-05-10T14:14:24.505Z,18.65
2018-05-10T14:16:52.787Z,18.80
2018-05-10T14:19:21.042Z,18.96
2018-05-10T14:21:49.535Z,19.11
2018-05-10T14:24:17.843Z,19.35
2018-05-10T14:26:46.815Z,19.56
2018-05-10T14:29:16.453Z,19.90
2018-05-10T14:31:46.141Z,20.40
2018-05-10T14:34:14.985Z,20.97
2018-05-10T14:36:44.247Z,21.46
2018-05-10T14:39:13.412Z,21.55
2018-05-10T14:41:42.624Z,22.11
2018-05-10T14:44:10.901Z,22.43
2018-05-10T14:46:39.502Z,22.64
2018-05-10T14:49:07.993Z,22.92
2018-05-10T14:51:37.578Z,23.18
2018-05-10T14:54:07.847Z,22.97
2018-05-10T14:56:38.553Z,22.91
2018-05-10T14:59:08.211Z,22.04
2018-05-10T15:01:36.783Z,22.05
2018-05-10T15:04:05.187Z,21.91
2018-05-10T15:06:33.971Z,21.27
2018-05-10T15:09:03.027Z,21.45
2018-05-10T15:11:31.728Z,21.18
2018-05-10T15:14:01.361Z,20.82
2018-05-10T15:16:31.975Z,20.72
2018-05-10T15:19:00.265Z,20.74
2018-05-10T15:21:33.726Z,20.68
2018-05-10T15:24:03.383Z,20.51
2018-05-10T15:26:34.237Z,20.33
2018-05-10T15:29:03.301Z,20.12
2018-05-10T15:31:32.512Z,20.03
2018-05-10T15:34:02.448Z,19.94
2018-05-10T15:36:32.763Z,20.00
2018-05-10T15:39:04.705Z,20.03
2018-05-10T15:41:32.981Z,20.17
2018-05-10T15:44:01.492Z,20.23
2018-05-10T15:46:31.538Z,20.21
2018-05-10T15:49:02.348Z,20.03
2018-05-10T15:51:30.602Z,20.03
2018-05-10T15:53:59.689Z,20.07
2018-05-10T15:56:28.007Z,20.14
2018-05-10T15:58:57.326Z,20.09
2018-05-10T16:01:25.645Z,20.06
2018-05-10T16:03:54.024Z,20.11
2018-05-10T16:06:23.245Z,20.14
2018-05-10T16:08:51.574Z,20.08
2018-05-10T16:11:19.870Z,20.05
2018-05-10T16:13:48.196Z,20.07
2018-05-10T16:16:17.301Z,19.88
2018-05-10T16:18:46.845Z,19.80
2018-05-10T16:21:15.114Z,19.56
2018-05-10T16:23:43.370Z,19.48
2018-05-10T16:26:11.795Z,19.46
2018-05-10T16:28:40.913Z,19.26
2018-05-10T16:31:09.303Z,19.36
2018-05-10T16:33:37.643Z,19.15
2018-05-10T16:36:05.881Z,19.13
2018-05-10T16:38:34.156Z,19.16
2018-05-10T16:41:03.191Z,19.17
2018-05-10T16:43:31.471Z,19.22
2018-05-10T16:46:00.537Z,19.24
2018-05-10T16:48:29.605Z,19.27
2018-05-10T16:50:57.907Z,19.13
2018-05-10T16:53:26.267Z,19.13
2018-05-10T16:55:54.534Z,19.21
2018-05-10T16:58:24.067Z,19.16
2018-05-10T17:00:53.092Z,19.29
2018-05-10T17:03:21.465Z,19.27
2018-05-10T17:05:50.506Z,19.44
2018-05-10T17:08:18.803Z,19.52
2018-05-10T17:10:47.102Z,19.51
2018-05-10T17:13:15.424Z,19.51
2018-05-10T17:15:43.757Z,19.53
2018-05-10T17:18:12.970Z,19.48
2018-05-10T17:20:41.234Z,19.40
2018-05-10T17:23:09.506Z,19.23
2018-05-10T17:25:37.801Z,19.09
2018-05-10T17:28:06.057Z,18.92
2018-05-10T17:30:34.431Z,18.85
2018-05-10T17:33:02.701Z,18.75
2018-05-10T17:35:31.729Z,18.60
2018-05-10T17:37:59.987Z,18.50
2018-05-10T17:40:29.054Z,18.32
2018-05-10T17:42:57.318Z,18.31
2018-05-10T17:45:25.593Z,18.26
2018-05-10T17:47:53.998Z,18.18
2018-05-10T17:50:22.288Z,18.08
2018-05-10T17:52:50.557Z,18.00
2018-05-10T17:55:19.615Z,17.95
2018-05-10T17:57:47.873Z,17.88
2018-05-10T18:00:16.185Z,17.77
2018-05-10T18:02:44.884Z,17.76
2018-05-10T18:05:13.257Z,17.76
2018-05-10T18:07:41.606Z,17.66
2018-05-10T18:10:09.900Z,17.57
2018-05-10T18:12:38.152Z,17.57
2018-05-10T18:15:06.424Z,17.56
2018-05-10T18:17:34.715Z,17.50
2018-05-10T18:20:02.987Z,17.40
2018-05-10T18:22:31.258Z,17.37
2018-05-10T18:25:00.307Z,17.36
2018-05-10T18:27:28.573Z,17.30
2018-05-10T18:29:56.859Z,17.25
2018-05-10T18:32:25.910Z,17.21
2018-05-10T18:34:54.189Z,17.23
2018-05-10T18:37:22.467Z,17.16
2018-05-10T18:39:50.852Z,17.09
2018-05-10T18:42:19.087Z,17.03
2018-05-10T18:44:47.348Z,17.02
2018-05-10T18:47:15.663Z,16.95
2018-05-10T18:49:44.027Z,16.87
2018-05-10T18:52:12.304Z,16.82
2018-05-10T18:54:40.652Z,16.75
2018-05-10T18:57:08.869Z,16.70
2018-05-10T18:59:37.915Z,16.63
2018-05-10T19:02:06.185Z,16.58
2018-05-10T19:04:34.450Z,16.50
2018-05-10T19:07:03.496Z,16.41
2018-05-10T19:09:31.786Z,16.41
2018-05-10T19:12:00.094Z,16.34
2018-05-10T19:14:28.417Z,16.27
2018-05-10T19:16:56.972Z,16.27
2018-05-10T19:19:25.391Z,16.14
2018-05-10T19:21:53.578Z,16.09
2018-05-10T19:24:21.877Z,16.01
2018-05-10T19:26:50.182Z,15.97
2018-05-10T19:29:19.222Z,15.90
2018-05-10T19:31:47.562Z,15.84
2018-05-10T19:34:16.519Z,15.78
2018-05-10T19:36:44.800Z,15.78
2018-05-10T19:39:13.099Z,15.68
2018-05-10T19:41:41.401Z,15.65
2018-05-10T19:44:11.607Z,15.53
2018-05-10T19:46:40.661Z,15.50
2018-05-10T19:49:08.925Z,15.49
2018-05-10T19:51:37.188Z,15.39
2018-05-10T19:54:06.234Z,15.34
2018-05-10T19:56:34.557Z,15.34
2018-05-10T19:59:02.774Z,15.30
2018-05-10T20:01:31.819Z,15.47
2018-05-10T20:04:00.077Z,15.49
2018-05-10T20:06:29.131Z,15.50
2018-05-10T20:08:57.426Z,15.66
2018-05-10T20:11:25.721Z,15.54
2018-05-10T20:13:54.021Z,15.52
2018-05-10T20:16:22.330Z,15.57
2018-05-10T20:18:51.484Z,15.50
2018-05-10T20:21:19.873Z,15.48
2018-05-10T20:23:48.186Z,15.45
2018-05-10T20:26:16.563Z,15.63
2018-05-10T20:28:44.830Z,15.58
2018-05-10T20:31:13.955Z,15.55
2018-05-10T20:33:42.202Z,15.48
2018-05-10T20:36:10.473Z,15.61
2018-05-10T20:38:38.754Z,15.48
2018-05-10T20:41:07.008Z,15.47
2018-05-10T20:43:35.296Z,15.47
2018-05-10T20:46:04.333Z,15.32
2018-05-10T20:48:32.593Z,15.23
2018-05-10T20:51:02.038Z,15.33
2018-05-10T20:53:30.314Z,15.25
2018-05-10T20:55:58.657Z,15.29
2018-05-10T20:58:26.902Z,15.06
2018-05-10T21:00:55.395Z,15.00
2018-05-10T21:03:23.691Z,14.96
2018-05-10T21:05:51.931Z,14.95
2018-05-10T21:08:20.964Z,14.88
2018-05-10T21:10:49.233Z,14.85
2018-05-10T21:13:18.255Z,14.78
2018-05-10T21:15:46.579Z,14.94
2018-05-10T21:18:14.951Z,14.83
2018-05-10T21:20:43.206Z,14.94
2018-05-10T21:23:11.540Z,14.76
2018-05-10T21:25:39.750Z,14.70
2018-05-10T21:28:08.022Z,14.71
2018-05-10T21:30:36.394Z,14.73
2018-05-10T21:33:05.420Z,14.61
2018-05-10T21:35:33.684Z,14.45
2018-05-10T21:38:02.731Z,14.53
2018-05-10T21:40:31.001Z,14.37
2018-05-10T21:42:59.258Z,14.40
2018-05-10T21:45:27.568Z,14.30
2018-05-10T21:47:56.605Z,14.20
2018-05-10T21:50:28.609Z,14.15
2018-05-10T21:52:56.887Z,14.09
2018-05-10T21:55:25.180Z,14.02
2018-05-10T21:57:54.572Z,13.94
2018-05-10T22:00:22.879Z,14.01
2018-05-10T22:02:51.140Z,13.98
2018-05-10T22:05:19.406Z,13.92
2018-05-10T22:07:48.482Z,13.82
2018-05-10T22:10:16.942Z,13.84
2018-05-10T22:12:45.238Z,13.77
2018-05-10T22:15:13.531Z,13.67
2018-05-10T22:17:42.626Z,13.69
2018-05-10T22:20:10.919Z,13.65
2018-05-10T22:22:39.279Z,13.70
2018-05-10T22:25:07.550Z,13.61
2018-05-10T22:27:35.874Z,13.66
2018-05-10T22:30:04.940Z,13.71
2018-05-10T22:32:33.184Z,13.53
2018-05-10T22:35:02.239Z,13.52
2018-05-10T22:37:30.503Z,13.43
2018-05-10T22:39:58.764Z,13.44
2018-05-10T22:42:27.073Z,13.39
2018-05-10T22:44:58.795Z,13.31
2018-05-10T22:47:30.897Z,13.28
2018-05-10T22:50:01.782Z,13.29
2018-05-10T22:52:32.770Z,13.25
2018-05-10T22:55:03.116Z,13.31
2018-05-10T22:57:31.446Z,13.22
2018-05-10T23:00:03.125Z,13.24
2018-05-10T23:02:31.671Z,13.22
2018-05-10T23:05:02.949Z,13.22
2018-05-10T23:07:31.588Z,13.23
2018-05-10T23:10:02.982Z,13.16
2018-05-10T23:12:31.296Z,13.10
2018-05-10T23:14:59.560Z,13.06
2018-05-10T23:17:27.878Z,12.96
2018-05-10T23:19:56.169Z,12.91
2018-05-10T23:22:25.442Z,12.89
2018-05-10T23:24:53.728Z,12.76
2018-05-10T23:27:22.023Z,12.73
2018-05-10T23:29:50.453Z,12.70
2018-05-10T23:32:20.047Z,12.76
2018-05-10T23:34:48.401Z,12.78
2018-05-10T23:37:16.659Z,12.68
2018-05-10T23:39:45.711Z,12.67
2018-05-10T23:42:13.983Z,12.70
2018-05-10T23:44:42.233Z,12.65
2018-05-10T23:47:10.508Z,12.68
2018-05-10T23:49:38.893Z,12.72
2018-05-10T23:52:07.253Z,12.60
2018-05-10T23:54:35.512Z,12.64
2018-05-10T23:57:03.802Z,12.56
2018-05-10T23:59:32.122Z,12.48
